Lompoc, CA

1:40 AM PDT on August 28, 2014 (GMT -0700)
Lompoc | Change Station
CLOSE
Current Station
Airport
Location: Lompoc,
Elevation: 89 ft
Nearby Weather Stations
Active Advisory: Beach Hazard Statement Active Notice: Record Report

Elev 89 ft 34.67 °N, 120.47 °W | Updated 5 minutes ago

Overcast
Overcast
61 °F
Feels Like 61 °F
N
0
Wind Variable Wind from North

Today
High -- | Low -- °F
--% Chance of Precip.
Yesterday
High -- | Low -- °F
Precip. -- in
6:32 AM 7:33 PM
Waxing Crescent, 7% visible
Pressure 30.07 in
Visibility 10.0 miles
Clouds Overcast 500 ft
Dew Point 55 °F
Humidity 82%
Rainfall 0.00 in
Snow Depth Not available.
UV 0 out of 12
Pollen 8.60 out of 12
Ozone Good
PM2.5 Good
Flu Activity Not available.
METAR KLPC 280835Z AUTO 00000KT 10SM OVC005 16/13 A3007 RMK AO1

More Conditions Fewer Conditions

Pressure 30.07 in
Visibility 10.0 miles
Clouds Overcast 500 ft
Dew Point 55 °F
Humidity 82%
Rainfall 0.00 in
Snow Depth Not available.
UV 0 out of 12
Pollen 8.60 out of 12
Ozone Good
PM2.5 Good
Flu Activity Not available.
METAR KLPC 280835Z AUTO 00000KT 10SM OVC005 16/13 A3007 RMK AO1

More Conditions Fewer Conditions

10-Day Weather Forecast

Almanac

Astronomy

Aug. 28, 2014 Rise Set
Actual Time 6:32 AM PDT 7:33 PM PDT
Civil Twilight 6:06 AM PDT 7:59 PM PDT
Nautical Twilight 5:35 AM PDT 8:29 PM PDT
Astronomical Twilight 5:03 AM PDT 9:01 PM PDT
Moon 9:20 AM PDT 9:10 PM PDT
Length of Visible Light 13h 53m
Length of Day
13h 01m
Tomorrow will be 2m 2s shorter.
Waxing Crescent, 7% of the Moon is Illuminated
Today
Waxing Crescent
Sep 2
First Quarter
Sep 8
Full
Sep 15
Last Quarter
Sep 24
New

Today's Extremes

State Highs State Lows

Community

WunderPhotos

Upload Photos

1,747,918 photos uploaded!

Nearby

Air Quality

  Air Quality AQ Index Pollutant
Yesterday Good
OZONE
Yesterday Good
PM10
Current Good
OZONE
Current Good
PM2.5
Thursday Good
PM2.5
Thursday Good
OZONE

Snow Depth

Station Depth Elevation
Leavitt Lake 1 in 9400 ft
Leavitt Meadows 1 in 7200 ft
Summit Meadow 1 in 9122 ft
Blue Lakes 0 in 8000 ft
Forestdale Creek 0 in 8029 ft

Earthquake Activity

City Distance Mag. Time & Date
Soledad, California 134 miles 2.6 12:15 PM PDT
2014-08-26
Minimum magnitude displayed is 2.5.

Coastal Water Temperatures

Place Temperature
Port San Luis, CA 63.0 °F
Santa Monica Pier 71.1 °F

Nearby Weather Stations